sensor_id;sensor_type;location;lat;lon;timestamp;pressure;altitude;pressure_sealevel;temperature;humidity
19236;BME280;9752;54.270;12.470;2023-05-12T00:03:51;102076.44;;;9.05;100.00
19236;BME280;9752;54.270;12.470;2023-05-12T00:08:53;102067.91;;;9.06;100.00
19236;BME280;9752;54.270;12.470;2023-05-12T00:13:55;102083.44;;;9.06;100.00
19236;BME280;9752;54.270;12.470;2023-05-12T00:18:58;102081.50;;;9.03;100.00
19236;BME280;9752;54.270;12.470;2023-05-12T00:24:00;102083.44;;;8.95;100.00
19236;BME280;9752;54.270;12.470;2023-05-12T00:29:02;102082.88;;;8.89;100.00
19236;BME280;9752;54.270;12.470;2023-05-12T00:34:05;102085.78;;;8.73;100.00
19236;BME280;9752;54.270;12.470;2023-05-12T00:39:06;102093.38;;;8.62;100.00
19236;BME280;9752;54.270;12.470;2023-05-12T00:44:09;102088.94;;;8.50;100.00
19236;BME280;9752;54.270;12.470;2023-05-12T00:49:12;102086.88;;;8.37;100.00
19236;BME280;9752;54.270;12.470;2023-05-12T00:54:15;102093.16;;;8.31;100.00
19236;BME280;9752;54.270;12.470;2023-05-12T00:59:17;102157.00;;;8.21;100.00
19236;BME280;9752;54.270;12.470;2023-05-12T01:04:20;102170.44;;;8.09;100.00
19236;BME280;9752;54.270;12.470;2023-05-12T01:09:22;102174.13;;;8.02;100.00
19236;BME280;9752;54.270;12.470;2023-05-12T01:14:24;102273.09;;;8.01;100.00
19236;BME280;9752;54.270;12.470;2023-05-12T01:19:37;102295.00;;;7.96;100.00
19236;BME280;9752;54.270;12.470;2023-05-12T01:24:45;102299.13;;;7.85;100.00
19236;BME280;9752;54.270;12.470;2023-05-12T01:29:48;102313.16;;;7.78;100.00
19236;BME280;9752;54.270;12.470;2023-05-12T01:34:52;102319.88;;;7.68;100.00
19236;BME280;9752;54.270;12.470;2023-05-12T01:39:55;102327.47;;;7.66;100.00
19236;BME280;9752;54.270;12.470;2023-05-12T01:44:58;102330.03;;;7.66;100.00
19236;BME280;9752;54.270;12.470;2023-05-12T01:50:00;102336.88;;;7.66;100.00
19236;BME280;9752;54.270;12.470;2023-05-12T01:55:03;102347.22;;;7.66;100.00
19236;BME280;9752;54.270;12.470;2023-05-12T02:00:14;102347.84;;;7.63;100.00
19236;BME280;9752;54.270;12.470;2023-05-12T02:05:16;102352.69;;;7.60;100.00
19236;BME280;9752;54.270;12.470;2023-05-12T02:10:21;102360.31;;;7.50;100.00
19236;BME280;9752;54.270;12.470;2023-05-12T02:15:24;102363.06;;;7.51;100.00
19236;BME280;9752;54.270;12.470;2023-05-12T02:20:26;102370.81;;;7.51;100.00
19236;BME280;9752;54.270;12.470;2023-05-12T02:25:29;102375.81;;;7.41;100.00
19236;BME280;9752;54.270;12.470;2023-05-12T02:30:32;102373.53;;;7.35;100.00
19236;BME280;9752;54.270;12.470;2023-05-12T02:35:34;102369.75;;;7.32;100.00
19236;BME280;9752;54.270;12.470;2023-05-12T02:40:36;102372.78;;;7.28;100.00
19236;BME280;9752;54.270;12.470;2023-05-12T02:45:39;102369.88;;;7.24;100.00
19236;BME280;9752;54.270;12.470;2023-05-12T02:50:41;102374.16;;;7.24;100.00
19236;BME280;9752;54.270;12.470;2023-05-12T02:55:43;102374.00;;;7.14;100.00
19236;BME280;9752;54.270;12.470;2023-05-12T03:00:46;102371.56;;;7.24;100.00
19236;BME280;9752;54.270;12.470;2023-05-12T03:05:48;102374.31;;;7.26;100.00
19236;BME280;9752;54.270;12.470;2023-05-12T03:10:52;102373.53;;;7.35;100.00
19236;BME280;9752;54.270;12.470;2023-05-12T03:15:55;102362.13;;;7.51;100.00
19236;BME280;9752;54.270;12.470;2023-05-12T03:21:01;102357.91;;;7.42;100.00
19236;BME280;9752;54.270;12.470;2023-05-12T03:26:03;102357.31;;;7.36;100.00
19236;BME280;9752;54.270;12.470;2023-05-12T03:31:06;102364.91;;;7.35;100.00
19236;BME280;9752;54.270;12.470;2023-05-12T03:36:08;102367.59;;;7.45;100.00
19236;BME280;9752;54.270;12.470;2023-05-12T03:41:11;102375.81;;;7.50;100.00
19236;BME280;9752;54.270;12.470;2023-05-12T03:46:14;102366.38;;;7.41;100.00
19236;BME280;9752;54.270;12.470;2023-05-12T03:51:16;102370.94;;;7.53;100.00
19236;BME280;9752;54.270;12.470;2023-05-12T03:56:17;102370.16;;;7.62;100.00
19236;BME280;9752;54.270;12.470;2023-05-12T04:01:20;102366.19;;;7.66;100.00
19236;BME280;9752;54.270;12.470;2023-05-12T04:06:22;102374.56;;;7.72;100.00
19236;BME280;9752;54.270;12.470;2023-05-12T04:11:24;102369.78;;;7.94;100.00
19236;BME280;9752;54.270;12.470;2023-05-12T04:16:27;102370.84;;;7.96;100.00
19236;BME280;9752;54.270;12.470;2023-05-12T04:21:28;102373.88;;;7.92;100.00
19236;BME280;9752;54.270;12.470;2023-05-12T04:26:30;102384.78;;;8.07;100.00
19236;BME280;9752;54.270;12.470;2023-05-12T04:31:34;102380.34;;;8.24;100.00
19236;BME280;9752;54.270;12.470;2023-05-12T04:36:39;102393.78;;;8.47;100.00
19236;BME280;9752;54.270;12.470;2023-05-12T04:41:40;102397.66;;;8.61;100.00
19236;BME280;9752;54.270;12.470;2023-05-12T04:46:44;102404.88;;;8.74;100.00
19236;BME280;9752;54.270;12.470;2023-05-12T04:51:45;102409.59;;;8.97;100.00
19236;BME280;9752;54.270;12.470;2023-05-12T04:56:47;102416.28;;;9.23;100.00
19236;BME280;9752;54.270;12.470;2023-05-12T05:01:51;102418.66;;;9.49;100.00
19236;BME280;9752;54.270;12.470;2023-05-12T05:06:53;102421.31;;;9.88;100.00
19236;BME280;9752;54.270;12.470;2023-05-12T05:11:56;102415.25;;;10.27;100.00
19236;BME280;9752;54.270;12.470;2023-05-12T05:16:59;102398.47;;;10.53;100.00
19236;BME280;9752;54.270;12.470;2023-05-12T05:22:01;102378.13;;;10.78;100.00
19236;BME280;9752;54.270;12.470;2023-05-12T05:27:04;102371.47;;;11.12;100.00
19236;BME280;9752;54.270;12.470;2023-05-12T05:32:08;102346.56;;;11.47;100.00
19236;BME280;9752;54.270;12.470;2023-05-12T05:37:09;102326.53;;;11.88;100.00
19236;BME280;9752;54.270;12.470;2023-05-12T05:42:12;102299.59;;;12.32;100.00
19236;BME280;9752;54.270;12.470;2023-05-12T05:47:16;102286.00;;;12.70;100.00
19236;BME280;9752;54.270;12.470;2023-05-12T05:52:18;102241.84;;;13.07;100.00
19236;BME280;9752;54.270;12.470;2023-05-12T05:57:20;102235.50;;;13.39;100.00
19236;BME280;9752;54.270;12.470;2023-05-12T06:02:24;102225.16;;;13.64;100.00
19236;BME280;9752;54.270;12.470;2023-05-12T06:07:26;102224.88;;;13.98;100.00
19236;BME280;9752;54.270;12.470;2023-05-12T06:12:28;102224.53;;;14.18;100.00
19236;BME280;9752;54.270;12.470;2023-05-12T06:17:31;102230.44;;;14.54;100.00
19236;BME280;9752;54.270;12.470;2023-05-12T06:22:32;102222.50;;;14.78;100.00
19236;BME280;9752;54.270;12.470;2023-05-12T06:27:34;102225.59;;;14.99;100.00
19236;BME280;9752;54.270;12.470;2023-05-12T06:32:37;102217.41;;;15.34;100.00
19236;BME280;9752;54.270;12.470;2023-05-12T06:37:39;102227.75;;;15.46;100.00
19236;BME280;9752;54.270;12.470;2023-05-12T06:42:47;102229.69;;;15.77;100.00
19236;BME280;9752;54.270;12.470;2023-05-12T06:47:54;102230.28;;;16.01;100.00
19236;BME280;9752;54.270;12.470;2023-05-12T06:53:01;102223.03;;;16.25;100.00
19236;BME280;9752;54.270;12.470;2023-05-12T06:58:02;102221.59;;;16.45;100.00
19236;BME280;9752;54.270;12.470;2023-05-12T07:03:05;102224.81;;;16.71;100.00
19236;BME280;9752;54.270;12.470;2023-05-12T07:08:09;102221.00;;;17.10;100.00
19236;BME280;9752;54.270;12.470;2023-05-12T07:13:10;102229.69;;;17.09;100.00
19236;BME280;9752;54.270;12.470;2023-05-12T07:18:13;102225.31;;;17.41;100.00
19236;BME280;9752;54.270;12.470;2023-05-12T07:23:15;102230.94;;;17.64;100.00
19236;BME280;9752;54.270;12.470;2023-05-12T07:28:17;102227.03;;;17.72;100.00
19236;BME280;9752;54.270;12.470;2023-05-12T07:33:21;102219.47;;;17.94;100.00
19236;BME280;9752;54.270;12.470;2023-05-12T07:38:23;102229.06;;;18.27;100.00
19236;BME280;9752;54.270;12.470;2023-05-12T07:43:25;102218.31;;;18.22;100.00
19236;BME280;9752;54.270;12.470;2023-05-12T07:48:28;102227.63;;;18.50;100.00
19236;BME280;9752;54.270;12.470;2023-05-12T07:53:30;102231.53;;;18.58;100.00
19236;BME280;9752;54.270;12.470;2023-05-12T07:58:31;102227.34;;;18.80;100.00
19236;BME280;9752;54.270;12.470;2023-05-12T08:03:35;102231.06;;;19.01;100.00
19236;BME280;9752;54.270;12.470;2023-05-12T08:08:36;102224.97;;;19.02;100.00
19236;BME280;9752;54.270;12.470;2023-05-12T08:13:38;102233.75;;;19.21;100.00
19236;BME280;9752;54.270;12.470;2023-05-12T08:18:41;102231.19;;;19.22;100.00
19236;BME280;9752;54.270;12.470;2023-05-12T08:23:43;102237.34;;;19.41;100.00
19236;BME280;9752;54.270;12.470;2023-05-12T08:28:45;102237.34;;;19.41;100.00
19236;BME280;9752;54.270;12.470;2023-05-12T08:33:48;102242.47;;;19.57;100.00
19236;BME280;9752;54.270;12.470;2023-05-12T08:38:50;102240.66;;;19.74;100.00
19236;BME280;9752;54.270;12.470;2023-05-12T08:43:51;102240.19;;;19.65;100.00
19236;BME280;9752;54.270;12.470;2023-05-12T08:48:55;102252.31;;;19.79;100.00
19236;BME280;9752;54.270;12.470;2023-05-12T08:53:59;102244.47;;;20.00;100.00
19236;BME280;9752;54.270;12.470;2023-05-12T08:59:02;102246.69;;;19.91;100.00
19236;BME280;9752;54.270;12.470;2023-05-12T09:04:06;102237.44;;;20.20;100.00
19236;BME280;9752;54.270;12.470;2023-05-12T09:09:07;102241.09;;;20.24;100.00
19236;BME280;9752;54.270;12.470;2023-05-12T09:14:14;102248.28;;;19.87;100.00
19236;BME280;9752;54.270;12.470;2023-05-12T09:19:19;102243.16;;;20.10;100.00
19236;BME280;9752;54.270;12.470;2023-05-12T09:24:32;102250.44;;;19.96;100.00
19236;BME280;9752;54.270;12.470;2023-05-12T09:29:34;102248.63;;;20.15;100.00
19236;BME280;9752;54.270;12.470;2023-05-12T09:34:37;102248.81;;;20.19;100.00
19236;BME280;9752;54.270;12.470;2023-05-12T09:39:40;102252.63;;;20.06;100.00
19236;BME280;9752;54.270;12.470;2023-05-12T09:44:41;102245.44;;;19.83;100.00
19236;BME280;9752;54.270;12.470;2023-05-12T09:49:50;102249.53;;;20.15;100.00
19236;BME280;9752;54.270;12.470;2023-05-12T09:54:54;102239.41;;;20.24;100.00
19236;BME280;9752;54.270;12.470;2023-05-12T09:59:55;102242.84;;;20.64;100.00
19236;BME280;9752;54.270;12.470;2023-05-12T10:05:02;102248.41;;;20.51;100.00
19236;BME280;9752;54.270;12.470;2023-05-12T10:10:07;102243.06;;;20.69;100.00
19236;BME280;9752;54.270;12.470;2023-05-12T10:15:10;102249.28;;;20.92;100.00
19236;BME280;9752;54.270;12.470;2023-05-12T10:20:16;102234.13;;;20.65;99.01
19236;BME280;9752;54.270;12.470;2023-05-12T10:25:19;102243.84;;;20.87;100.00
19236;BME280;9752;54.270;12.470;2023-05-12T10:30:21;102235.91;;;20.87;100.00
19236;BME280;9752;54.270;12.470;2023-05-12T10:35:32;102241.09;;;21.06;99.88
19236;BME280;9752;54.270;12.470;2023-05-12T10:40:34;102235.34;;;21.17;98.56
19236;BME280;9752;54.270;12.470;2023-05-12T10:45:36;102232.94;;;21.00;98.35
19236;BME280;9752;54.270;12.470;2023-05-12T10:50:51;102231.88;;;21.18;96.53
19236;BME280;9752;54.270;12.470;2023-05-12T10:55:54;102224.56;;;21.33;95.71
19236;BME280;9752;54.270;12.470;2023-05-12T11:01:03;102231.28;;;21.25;96.55
19236;BME280;9752;54.270;12.470;2023-05-12T11:06:06;102227.91;;;21.29;95.71
19236;BME280;9752;54.270;12.470;2023-05-12T11:11:08;102223.13;;;21.64;94.85
19236;BME280;9752;54.270;12.470;2023-05-12T11:16:11;102218.56;;;21.37;92.20
19236;BME280;9752;54.270;12.470;2023-05-12T11:21:14;102229.31;;;21.64;94.20
19236;BME280;9752;54.270;12.470;2023-05-12T11:26:16;102225.31;;;22.00;95.93
19236;BME280;9752;54.270;12.470;2023-05-12T11:31:19;102219.66;;;21.65;90.30
19236;BME280;9752;54.270;12.470;2023-05-12T11:36:22;102220.56;;;21.90;90.89
19236;BME280;9752;54.270;12.470;2023-05-12T11:41:24;102222.00;;;21.81;92.96
19236;BME280;9752;54.270;12.470;2023-05-12T11:46:27;102215.22;;;21.88;89.84
19236;BME280;9752;54.270;12.470;2023-05-12T11:51:31;102216.72;;;21.81;87.10
19236;BME280;9752;54.270;12.470;2023-05-12T11:56:33;102226.88;;;21.95;89.99
19236;BME280;9752;54.270;12.470;2023-05-12T12:01:43;102239.19;;;22.18;91.77
19236;BME280;9752;54.270;12.470;2023-05-12T12:11:48;102236.28;;;22.35;91.32
19236;BME280;9752;54.270;12.470;2023-05-12T12:16:50;102238.09;;;22.63;92.26
19236;BME280;9752;54.270;12.470;2023-05-12T12:21:53;102243.53;;;22.40;89.41
19236;BME280;9752;54.270;12.470;2023-05-12T12:26:54;102245.38;;;22.19;88.86
19236;BME280;9752;54.270;12.470;2023-05-12T12:31:56;102226.94;;;21.96;84.30
19236;BME280;9752;54.270;12.470;2023-05-12T12:36:59;102251.81;;;22.01;87.09
19236;BME280;9752;54.270;12.470;2023-05-12T12:42:01;102246.22;;;21.94;89.28
19236;BME280;9752;54.270;12.470;2023-05-12T12:47:03;102256.00;;;22.20;93.01
19236;BME280;9752;54.270;12.470;2023-05-12T12:52:06;102252.16;;;22.35;93.17
19236;BME280;9752;54.270;12.470;2023-05-12T12:57:08;102242.19;;;22.53;93.74
19236;BME280;9752;54.270;12.470;2023-05-12T13:02:10;102248.66;;;22.61;94.88
19236;BME280;9752;54.270;12.470;2023-05-12T13:07:13;102247.72;;;22.59;95.41
19236;BME280;9752;54.270;12.470;2023-05-12T13:12:14;102248.16;;;22.48;94.98
19236;BME280;9752;54.270;12.470;2023-05-12T13:17:16;102243.94;;;22.78;97.07
19236;BME280;9752;54.270;12.470;2023-05-12T13:22:19;102241.75;;;22.67;96.81
19236;BME280;9752;54.270;12.470;2023-05-12T13:27:22;102248.16;;;22.46;94.41
19236;BME280;9752;54.270;12.470;2023-05-12T13:32:23;102242.72;;;22.69;94.03
19236;BME280;9752;54.270;12.470;2023-05-12T13:37:26;102242.94;;;22.75;96.46
19236;BME280;9752;54.270;12.470;2023-05-12T13:42:28;102237.84;;;23.08;93.39
19236;BME280;9752;54.270;12.470;2023-05-12T13:47:30;102242.38;;;23.11;94.52
19236;BME280;9752;54.270;12.470;2023-05-12T13:52:33;102246.09;;;23.46;96.09
19236;BME280;9752;54.270;12.470;2023-05-12T13:57:35;102242.78;;;23.25;95.20
19236;BME280;9752;54.270;12.470;2023-05-12T14:02:36;102232.16;;;23.23;90.15
19236;BME280;9752;54.270;12.470;2023-05-12T14:07:39;102245.03;;;23.12;91.52
19236;BME280;9752;54.270;12.470;2023-05-12T14:12:41;102234.78;;;22.69;90.38
19236;BME280;9752;54.270;12.470;2023-05-12T14:17:44;102226.59;;;22.61;86.63
19236;BME280;9752;54.270;12.470;2023-05-12T14:22:47;102227.38;;;23.11;87.14
19236;BME280;9752;54.270;12.470;2023-05-12T14:27:50;102215.91;;;23.70;80.94
19236;BME280;9752;54.270;12.470;2023-05-12T14:32:51;102217.50;;;24.27;80.32
19236;BME280;9752;54.270;12.470;2023-05-12T14:37:55;102213.00;;;24.94;79.82
19236;BME280;9752;54.270;12.470;2023-05-12T14:42:57;102219.03;;;24.87;79.24
19236;BME280;9752;54.270;12.470;2023-05-12T14:47:59;102213.97;;;25.36;80.97
19236;BME280;9752;54.270;12.470;2023-05-12T14:53:02;102215.47;;;25.64;81.08
19236;BME280;9752;54.270;12.470;2023-05-12T14:58:04;102222.75;;;24.93;76.64
19236;BME280;9752;54.270;12.470;2023-05-12T15:03:06;102197.03;;;25.71;73.09
19236;BME280;9752;54.270;12.470;2023-05-12T15:08:09;102193.94;;;25.50;71.39
19236;BME280;9752;54.270;12.470;2023-05-12T15:13:12;102191.47;;;25.61;69.62
19236;BME280;9752;54.270;12.470;2023-05-12T15:18:16;102201.19;;;24.80;67.02
19236;BME280;9752;54.270;12.470;2023-05-12T15:23:19;102186.44;;;25.73;68.55
19236;BME280;9752;54.270;12.470;2023-05-12T15:28:21;102177.72;;;25.80;65.79
19236;BME280;9752;54.270;12.470;2023-05-12T15:33:23;102201.03;;;25.51;64.82
19236;BME280;9752;54.270;12.470;2023-05-12T15:38:27;102188.34;;;25.82;63.99
19236;BME280;9752;54.270;12.470;2023-05-12T15:43:28;102185.56;;;25.76;61.85
19236;BME280;9752;54.270;12.470;2023-05-12T15:48:30;102191.94;;;26.31;62.80
19236;BME280;9752;54.270;12.470;2023-05-12T15:53:33;102197.75;;;26.08;61.76
19236;BME280;9752;54.270;12.470;2023-05-12T15:58:35;102205.25;;;25.85;61.91
19236;BME280;9752;54.270;12.470;2023-05-12T16:03:37;102193.19;;;26.52;60.02
19236;BME280;9752;54.270;12.470;2023-05-12T16:08:40;102212.97;;;25.30;60.24
19236;BME280;9752;54.270;12.470;2023-05-12T16:13:42;102195.22;;;26.15;60.41
19236;BME280;9752;54.270;12.470;2023-05-12T16:18:44;102200.72;;;26.25;61.19
19236;BME280;9752;54.270;12.470;2023-05-12T16:23:47;102201.41;;;26.62;61.57
19236;BME280;9752;54.270;12.470;2023-05-12T16:28:48;102213.38;;;26.37;62.20
19236;BME280;9752;54.270;12.470;2023-05-12T16:33:50;102196.53;;;26.40;61.50
19236;BME280;9752;54.270;12.470;2023-05-12T16:38:53;102207.72;;;26.19;61.90
19236;BME280;9752;54.270;12.470;2023-05-12T16:43:55;102217.72;;;26.34;63.29
19236;BME280;9752;54.270;12.470;2023-05-12T16:48:57;102234.97;;;26.08;64.78
19236;BME280;9752;54.270;12.470;2023-05-12T16:54:00;102220.63;;;27.01;65.01
19236;BME280;9752;54.270;12.470;2023-05-12T16:59:01;102216.44;;;27.17;63.26
19236;BME280;9752;54.270;12.470;2023-05-12T17:04:03;102248.97;;;25.57;65.81
19236;BME280;9752;54.270;12.470;2023-05-12T17:09:07;102265.34;;;25.35;68.33
19236;BME280;9752;54.270;12.470;2023-05-12T17:14:09;102269.13;;;25.47;70.50
19236;BME280;9752;54.270;12.470;2023-05-12T17:19:10;102275.69;;;24.87;70.13
19236;BME280;9752;54.270;12.470;2023-05-12T17:24:13;102275.97;;;25.00;69.59
19236;BME280;9752;54.270;12.470;2023-05-12T17:29:15;102292.44;;;24.51;72.94
19236;BME280;9752;54.270;12.470;2023-05-12T17:34:17;102270.22;;;25.18;66.96
19236;BME280;9752;54.270;12.470;2023-05-12T17:39:20;102277.22;;;24.79;68.33
19236;BME280;9752;54.270;12.470;2023-05-12T17:44:22;102281.59;;;25.12;69.36
19236;BME280;9752;54.270;12.470;2023-05-12T17:49:24;102304.28;;;23.72;71.46
19236;BME280;9752;54.270;12.470;2023-05-12T17:54:27;102326.22;;;21.90;80.17
19236;BME280;9752;54.270;12.470;2023-05-12T17:59:28;102309.84;;;22.72;78.82
19236;BME280;9752;54.270;12.470;2023-05-12T18:04:30;102312.44;;;22.71;79.37
19236;BME280;9752;54.270;12.470;2023-05-12T18:09:35;102332.84;;;21.78;83.00
19236;BME280;9752;54.270;12.470;2023-05-12T18:14:37;102355.44;;;20.27;87.82
19236;BME280;9752;54.270;12.470;2023-05-12T18:19:38;102352.75;;;18.81;97.68
19236;BME280;9752;54.270;12.470;2023-05-12T18:24:41;102357.16;;;18.00;100.00
19236;BME280;9752;54.270;12.470;2023-05-12T18:29:43;102368.94;;;16.28;100.00
19236;BME280;9752;54.270;12.470;2023-05-12T18:34:45;102365.03;;;15.26;100.00
19236;BME280;9752;54.270;12.470;2023-05-12T18:39:48;102360.31;;;14.69;100.00
19236;BME280;9752;54.270;12.470;2023-05-12T18:44:50;102367.19;;;14.43;100.00
19236;BME280;9752;54.270;12.470;2023-05-12T18:49:53;102366.09;;;14.02;100.00
19236;BME280;9752;54.270;12.470;2023-05-12T18:54:56;102361.16;;;13.70;100.00
19236;BME280;9752;54.270;12.470;2023-05-12T18:59:57;102367.97;;;13.33;100.00
19236;BME280;9752;54.270;12.470;2023-05-12T19:04:59;102366.88;;;12.95;100.00
19236;BME280;9752;54.270;12.470;2023-05-12T19:10:02;102374.28;;;12.67;100.00
19236;BME280;9752;54.270;12.470;2023-05-12T19:15:05;102366.97;;;12.39;100.00
19236;BME280;9752;54.270;12.470;2023-05-12T19:20:07;102372.34;;;12.08;100.00
19236;BME280;9752;54.270;12.470;2023-05-12T19:25:11;102371.13;;;11.83;100.00
19236;BME280;9752;54.270;12.470;2023-05-12T19:30:17;102370.72;;;11.56;100.00
19236;BME280;9752;54.270;12.470;2023-05-12T19:35:18;102367.22;;;11.45;100.00
19236;BME280;9752;54.270;12.470;2023-05-12T19:40:23;102360.38;;;11.36;100.00
19236;BME280;9752;54.270;12.470;2023-05-12T19:45:24;102368.50;;;11.08;100.00
19236;BME280;9752;54.270;12.470;2023-05-12T19:50:27;102362.66;;;11.00;100.00
19236;BME280;9752;54.270;12.470;2023-05-12T19:55:30;102371.50;;;11.02;100.00
19236;BME280;9752;54.270;12.470;2023-05-12T20:00:33;102366.56;;;10.85;100.00
19236;BME280;9752;54.270;12.470;2023-05-12T20:05:34;102373.44;;;10.84;100.00
19236;BME280;9752;54.270;12.470;2023-05-12T20:10:38;102377.84;;;10.75;100.00
19236;BME280;9752;54.270;12.470;2023-05-12T20:15:39;102368.50;;;10.77;100.00
19236;BME280;9752;54.270;12.470;2023-05-12T20:20:43;102364.63;;;10.72;100.00
19236;BME280;9752;54.270;12.470;2023-05-12T20:25:46;102370.22;;;10.66;100.00
19236;BME280;9752;54.270;12.470;2023-05-12T20:30:47;102367.06;;;10.60;100.00
19236;BME280;9752;54.270;12.470;2023-05-12T20:35:49;102371.78;;;10.64;100.00
19236;BME280;9752;54.270;12.470;2023-05-12T20:40:52;102369.41;;;10.67;100.00
19236;BME280;9752;54.270;12.470;2023-05-12T20:45:54;102372.66;;;10.75;100.00
19236;BME280;9752;54.270;12.470;2023-05-12T20:50:56;102367.06;;;10.60;100.00
19236;BME280;9752;54.270;12.470;2023-05-12T20:55:59;102372.41;;;10.62;100.00
19236;BME280;9752;54.270;12.470;2023-05-12T21:01:00;102373.78;;;10.38;100.00
19236;BME280;9752;54.270;12.470;2023-05-12T21:06:04;102372.94;;;10.18;100.00
19236;BME280;9752;54.270;12.470;2023-05-12T21:11:13;102365.81;;;10.15;100.00
19236;BME280;9752;54.270;12.470;2023-05-12T21:16:16;102366.63;;;10.25;100.00
19236;BME280;9752;54.270;12.470;2023-05-12T21:21:17;102369.59;;;10.29;100.00
19236;BME280;9752;54.270;12.470;2023-05-12T21:26:20;102361.16;;;10.22;100.00
19236;BME280;9752;54.270;12.470;2023-05-12T21:31:22;102366.09;;;10.29;100.00
19236;BME280;9752;54.270;12.470;2023-05-12T21:36:24;102361.09;;;10.30;100.00
19236;BME280;9752;54.270;12.470;2023-05-12T21:41:27;102364.22;;;10.47;100.00
19236;BME280;9752;54.270;12.470;2023-05-12T21:46:29;102364.25;;;10.18;100.00
19236;BME280;9752;54.270;12.470;2023-05-12T21:51:31;102367.59;;;10.06;100.00
19236;BME280;9752;54.270;12.470;2023-05-12T21:56:34;102371.88;;;10.06;100.00
19236;BME280;9752;54.270;12.470;2023-05-12T22:01:36;102375.97;;;9.83;100.00
19236;BME280;9752;54.270;12.470;2023-05-12T22:06:37;102374.88;;;9.52;100.00
19236;BME280;9752;54.270;12.470;2023-05-12T22:11:40;102378.78;;;9.28;100.00
19236;BME280;9752;54.270;12.470;2023-05-12T22:16:42;102374.06;;;9.05;100.00
19236;BME280;9752;54.270;12.470;2023-05-12T22:21:44;102391.00;;;8.82;100.00
19236;BME280;9752;54.270;12.470;2023-05-12T22:26:47;102391.31;;;8.57;100.00
19236;BME280;9752;54.270;12.470;2023-05-12T22:31:49;102391.66;;;8.34;100.00
19236;BME280;9752;54.270;12.470;2023-05-12T22:36:50;102397.81;;;8.17;100.00
19236;BME280;9752;54.270;12.470;2023-05-12T22:41:54;102401.38;;;8.00;100.00
19236;BME280;9752;54.270;12.470;2023-05-12T22:46:56;102403.22;;;7.93;100.00
19236;BME280;9752;54.270;12.470;2023-05-12T22:51:58;102400.66;;;7.75;100.00
19236;BME280;9752;54.270;12.470;2023-05-12T22:57:01;102411.34;;;7.61;100.00
19236;BME280;9752;54.270;12.470;2023-05-12T23:02:03;102402.09;;;7.46;100.00
19236;BME280;9752;54.270;12.470;2023-05-12T23:07:05;102403.59;;;7.43;100.00
19236;BME280;9752;54.270;12.470;2023-05-12T23:12:08;102406.50;;;7.29;100.00
19236;BME280;9752;54.270;12.470;2023-05-12T23:17:10;102411.50;;;7.10;100.00
19236;BME280;9752;54.270;12.470;2023-05-12T23:22:12;102404.97;;;6.96;100.00
19236;BME280;9752;54.270;12.470;2023-05-12T23:27:15;102412.06;;;6.90;100.00
19236;BME280;9752;54.270;12.470;2023-05-12T23:32:16;102417.50;;;6.76;100.00
19236;BME280;9752;54.270;12.470;2023-05-12T23:37:18;102405.94;;;6.55;100.00
19236;BME280;9752;54.270;12.470;2023-05-12T23:42:21;102411.97;;;6.55;100.00
19236;BME280;9752;54.270;12.470;2023-05-12T23:47:23;102415.78;;;6.68;100.00
19236;BME280;9752;54.270;12.470;2023-05-12T23:52:25;102414.97;;;6.42;100.00
19236;BME280;9752;54.270;12.470;2023-05-12T23:57:28;102417.44;;;6.50;100.00
